N12KBM KLAX-KSFO
Flight info
| Callsign | N12KBM |
|---|---|
| Flight time | N/A |
| Altitude | 22000 |
| Route | LADYJ4 COREZ MAKRS SERFR SERFR4 |
| Aircraft | TBM9/L-SDFGRWY/S |
Departure
| Time | 2026-04-21 04:51 |
|---|---|
| Airport | Los Angeles International Airport (KLAX) |
Arrival
| Time | N/A |
|---|---|
| Airport | San Francisco International Airport (KSFO) |
| Time | Latitude | Longitude | Altitude | Speed | Heading |
|---|---|---|---|---|---|
| 2026-04-21 04:39 | 33.93390 | -118.39572 | 120 ft | 0 kts | 225° |
| 2026-04-21 04:43 | 33.93400 | -118.39563 | 119 ft | 4 kts | 215° |
| 2026-04-21 04:44 | 33.93400 | -118.39562 | 119 ft | 0 kts | 214° |
| 2026-04-21 04:44 | 33.93394 | -118.39561 | 118 ft | 2 kts | 128° |
| 2026-04-21 04:45 | 33.93393 | -118.39552 | 118 ft | 0 kts | 89° |
| 2026-04-21 04:46 | 33.93423 | -118.39517 | 118 ft | 12 kts | 60° |
| 2026-04-21 04:46 | 33.93431 | -118.39427 | 120 ft | 0 kts | 87° |
| 2026-04-21 04:46 | 33.93432 | -118.39393 | 120 ft | 8 kts | 75° |
| 2026-04-21 04:46 | 33.93437 | -118.39387 | 119 ft | 1 kts | 351° |
| 2026-04-21 04:47 | 33.93444 | -118.39387 | 119 ft | 1 kts | 357° |
| 2026-04-21 04:48 | 33.93488 | -118.39383 | 120 ft | 8 kts | 14° |
| 2026-04-21 04:48 | 33.93516 | -118.39275 | 120 ft | 29 kts | 92° |
| 2026-04-21 04:49 | 33.93527 | -118.39048 | 119 ft | 17 kts | 68° |
| 2026-04-21 04:49 | 33.93541 | -118.38968 | 120 ft | 8 kts | 78° |
| 2026-04-21 04:49 | 33.93546 | -118.38916 | 120 ft | 0 kts | 82° |
| 2026-04-21 04:49 | 33.93564 | -118.38747 | 120 ft | 41 kts | 83° |
| 2026-04-21 04:50 | 33.93585 | -118.38539 | 120 ft | 26 kts | 85° |
| 2026-04-21 04:50 | 33.93597 | -118.38428 | 119 ft | 5 kts | 85° |
| 2026-04-21 04:50 | 33.93608 | -118.38340 | 120 ft | 14 kts | 70° |
| 2026-04-21 04:50 | 33.93666 | -118.38297 | 118 ft | 11 kts | 355° |
| 2026-04-21 04:51 | 33.93707 | -118.38372 | 119 ft | 36 kts | 268° |
| 2026-04-21 04:51 | 33.93661 | -118.38944 | 136 ft | 98 kts | 264° |
| 2026-04-21 04:51 | 33.93547 | -118.39877 | 358 ft | 128 kts | 261° |
| 2026-04-21 04:51 | 33.93393 | -118.40981 | 850 ft | 135 kts | 256° |
| 2026-04-21 04:52 | 33.93185 | -118.42139 | 1303 ft | 153 kts | 261° |
| 2026-04-21 04:52 | 33.93037 | -118.43376 | 2027 ft | 150 kts | 263° |
| 2026-04-21 04:52 | 33.92775 | -118.44695 | 2346 ft | 176 kts | 251° |
| 2026-04-21 04:52 | 33.92124 | -118.46015 | 2718 ft | 191 kts | 234° |
| 2026-04-21 04:53 | 33.91134 | -118.47146 | 3107 ft | 200 kts | 213° |
| 2026-04-21 04:53 | 33.90051 | -118.46905 | 3201 ft | 170 kts | 102° |
| 2026-04-21 04:53 | 33.90194 | -118.45592 | 3194 ft | 150 kts | 80° |
| 2026-04-21 04:53 | 33.90394 | -118.44344 | 3140 ft | 155 kts | 77° |
| 2026-04-21 04:54 | 33.90644 | -118.43053 | 3047 ft | 163 kts | 77° |
| 2026-04-21 04:54 | 33.90889 | -118.41762 | 2805 ft | 160 kts | 77° |
| 2026-04-21 04:54 | 33.90934 | -118.40425 | 2551 ft | 159 kts | 90° |
| 2026-04-21 04:54 | 33.91302 | -118.39166 | 2202 ft | 162 kts | 57° |
| 2026-04-21 04:55 | 33.91939 | -118.38016 | 1866 ft | 163 kts | 53° |
| 2026-04-21 04:55 | 33.92309 | -118.37128 | 1943 ft | 99 kts | 94° |
| 2026-04-21 04:55 | 33.92102 | -118.36340 | 1591 ft | 103 kts | 112° |
| 2026-04-21 04:55 | 33.91857 | -118.35491 | 1322 ft | 110 kts | 110° |
| 2026-04-21 04:56 | 33.91670 | -118.34609 | 1043 ft | 111 kts | 106° |
| 2026-04-21 04:56 | 33.91535 | -118.33734 | 649 ft | 103 kts | 97° |
| 2026-04-21 04:56 | 33.91499 | -118.32955 | 545 ft | 90 kts | 93° |
| 2026-04-21 04:56 | 33.91471 | -118.32256 | 347 ft | 73 kts | 89° |
| 2026-04-21 04:57 | 33.91500 | -118.31688 | 293 ft | 63 kts | 72° |